Time;durP1;ratioP1;P1;durP2;ratioP2;P2;SDS_P1;SDS_P2;PMS_P1;PMS_P2;Temp;Humidity;BMP_temperature;BMP_pressure;BME280_temperature;BME280_humidity;BME280_pressure;Samples;Min_cycle;Max_cycle;Signal;HPM_P1;HPM_P2
2023/09/22 00:02:09;;;;;;;;;;;;;;;;;;4964406;28;89655;-76
2023/09/22 00:04:35;;;;;;;;;;;;;;;;;;4961176;28;89641;-78
2023/09/22 00:07:01;;;;;;;;;;;;;;;;;;4965766;28;89271;-77
2023/09/22 00:09:26;;;;;;;;;;;;;;;;;;4966445;28;89658;-77
2023/09/22 00:11:51;;;;;;;;;;;;;;;;;;4956868;28;89959;-78
2023/09/22 00:14:16;;;;;;;;;;;;;;;;;;4963155;28;89594;-78
2023/09/22 00:16:42;;;;;;;;;;;;;;;;;;4966458;28;89679;-77
2023/09/22 00:19:08;;;;;;;;;;;;;;;;;;4962439;28;90326;-77
2023/09/22 00:21:33;;;;;;;;;;;;;;;;;;4967423;28;89516;-77
2023/09/22 00:23:59;;;;;;;;;;;;;;;;;;4965915;28;89680;-77
2023/09/22 00:26:25;;;;;;;;;;;;;;;;;;4965116;28;89640;-77
2023/09/22 00:28:50;;;;;;;;;;;;;;;;;;4966455;28;89125;-77
2023/09/22 00:31:15;;;;;;;;;;;;;;;;;;4965702;28;92849;-77
2023/09/22 00:33:41;;;;;;;;;;;;;;;;;;4962103;28;89477;-76
2023/09/22 00:36:06;;;;;;;;;;;;;;;;;;4966454;28;89545;-76
2023/09/22 00:38:31;;;;;;;;;;;;;;;;;;4964417;28;89207;-76
2023/09/22 00:40:56;;;;;;;;;;;;;;;;;;4964658;28;90929;-76
2023/09/22 00:43:22;;;;;;;;;;;;;;;;;;4966323;28;89307;-76
2023/09/22 00:45:52;;;;;;;;;;;;;;;;;;4965449;28;89605;-76
2023/09/22 00:48:26;;;;;;;;;;;;;;;;;;4968302;28;90764;-76
2023/09/22 00:50:53;;;;;;;;;;;;;;;;;;4967583;28;89777;-77
2023/09/22 00:53:18;;;;;;;;;;;;;;;;;;4971292;28;90246;-77
2023/09/22 00:55:45;;;;;;;;;;;;;;;;;;4953716;28;92648;-76
2023/09/22 00:58:11;;;;;;;;;;;;;;;;;;4967262;28;89164;-77
2023/09/22 01:00:38;;;;;;;;;;;;;;;;;;4966291;28;89643;-77
2023/09/22 01:03:03;;;;;;;;;;;;;;;;;;4962685;28;89808;-76
2023/09/22 01:05:30;;;;;;;;;;;;;;;;;;4966688;28;90240;-76
2023/09/22 01:07:55;;;;;;;;;;;;;;;;;;4966541;28;89110;-76
2023/09/22 01:10:21;;;;;;;;;;;;;;;;;;4967020;28;90016;-76
2023/09/22 01:12:46;;;;;;;;;;;;;;;;;;4960099;28;89404;-77
2023/09/22 01:15:11;;;;;;;;;;;;;;;;;;4971167;28;89092;-76
2023/09/22 01:17:37;;;;;;;;;;;;;;;;;;4964493;28;89231;-77
2023/09/22 01:20:07;;;;;;;;;;;;;;;;;;4964699;28;89129;-76
2023/09/22 01:22:35;;;;;;;;;;;;;;;;;;4984965;28;89906;-77
2023/09/22 01:25:00;;;;;;;;;;;;;;;;;;4960081;28;89068;-76
2023/09/22 01:27:26;;;;;;;;;;;;;;;;;;4956997;28;89552;-77
2023/09/22 01:29:51;;;;;;;;;;;;;;;;;;4963050;28;91436;-76
2023/09/22 01:32:17;;;;;;;;;;;;;;;;;;4963641;28;89892;-76
2023/09/22 01:34:42;;;;;;;;;;;;;;;;;;4961876;28;89220;-77
2023/09/22 01:37:07;;;;;;;;;;;;;;;;;;4966136;28;90076;-77
2023/09/22 01:39:35;;;;;;;;;;;;;;;;;;4959117;28;89340;-77
2023/09/22 01:42:01;;;;;;;;;;;;;;;;;;4957730;28;91078;-77
2023/09/22 01:44:26;;;;;;;;;;;;;;;;;;4966205;28;89877;-77
2023/09/22 01:46:51;;;;;;;;;;;;;;;;;;4962836;28;89023;-78
2023/09/22 01:49:17;;;;;;;;;;;;;;;;;;4963846;28;89830;-79
2023/09/22 01:51:42;;;;;;;;;;;;;;;;;;4964710;28;89580;-77
2023/09/22 01:54:07;;;;;;;;;;;;;;;;;;4963440;28;89211;-78
2023/09/22 01:56:33;;;;;;;;;;;;;;;;;;4970225;28;89745;-77
2023/09/22 01:58:58;;;;;;;;;;;;;;;;;;4967681;28;89098;-77
2023/09/22 02:01:23;;;;;;;;;;;;;;;;;;4964204;28;89513;-77
2023/09/22 02:03:48;;;;;;;;;;;;;;;;;;4972319;28;90592;-76
2023/09/22 02:06:14;;;;;;;;;;;;;;;;;;4977402;28;89143;-76
2023/09/22 02:08:40;;;;;;;;;;;;;;;;;;4967460;28;89513;-77
2023/09/22 02:11:05;;;;;;;;;;;;;;;;;;4964768;28;89296;-77
2023/09/22 02:13:30;;;;;;;;;;;;;;;;;;4967253;28;89550;-76
2023/09/22 02:15:56;;;;;;;;;;;;;;;;;;4968361;28;89430;-76
2023/09/22 02:18:23;;;;;;;;;;;;;;;;;;4968220;28;90269;-77
2023/09/22 02:20:48;;;;;;;;;;;;;;;;;;4961483;28;89570;-76
2023/09/22 02:23:13;;;;;;;;;;;;;;;;;;4963086;28;89630;-76
2023/09/22 02:25:39;;;;;;;;;;;;;;;;;;4963008;28;89211;-76
2023/09/22 02:28:04;;;;;;;;;;;;;;;;;;4966830;28;89704;-77
2023/09/22 02:30:29;;;;;;;;;;;;;;;;;;4961139;28;89857;-76
2023/09/22 02:32:54;;;;;;;;;;;;;;;;;;4960847;28;89174;-76
2023/09/22 02:35:23;;;;;;;;;;;;;;;;;;4965195;28;89507;-76
2023/09/22 02:37:48;;;;;;;;;;;;;;;;;;4958786;28;89993;-76
2023/09/22 02:40:14;;;;;;;;;;;;;;;;;;4965843;28;89523;-76
2023/09/22 02:42:40;;;;;;;;;;;;;;;;;;4979229;28;91751;-77
2023/09/22 02:45:06;;;;;;;;;;;;;;;;;;4964027;28;89346;-77
2023/09/22 02:47:31;;;;;;;;;;;;;;;;;;4965240;28;90736;-77
2023/09/22 02:49:56;;;;;;;;;;;;;;;;;;4957559;28;89163;-78
2023/09/22 02:52:22;;;;;;;;;;;;;;;;;;4960293;28;89310;-78
2023/09/22 02:54:57;;;;;;;;;;;;;;;;;;4961519;28;90590;-77
2023/09/22 02:57:22;;;;;;;;;;;;;;;;;;4961515;28;89138;-78
2023/09/22 02:59:52;;;;;;;;;;;;;;;;;;4973332;28;89195;-77
2023/09/22 03:02:18;;;;;;;;;;;;;;;;;;4967773;28;90266;-77
2023/09/22 03:04:43;;;;;;;;;;;;;;;;;;4964502;28;90021;-77
2023/09/22 03:07:08;;;;;;;;;;;;;;;;;;4963278;28;89620;-78
2023/09/22 03:09:33;;;;;;;;;;;;;;;;;;4960610;28;89334;-78
2023/09/22 03:11:59;;;;;;;;;;;;;;;;;;4958998;28;89262;-78
2023/09/22 03:14:24;;;;;;;;;;;;;;;;;;4962599;28;89598;-77
2023/09/22 03:16:49;;;;;;;;;;;;;;;;;;4957664;28;91143;-77
2023/09/22 03:19:15;;;;;;;;;;;;;;;;;;4962571;28;90197;-77
2023/09/22 03:21:40;;;;;;;;;;;;;;;;;;4961177;28;89931;-77
2023/09/22 03:24:05;;;;;;;;;;;;;;;;;;4965889;28;92829;-78
2023/09/22 03:26:31;;;;;;;;;;;;;;;;;;4959571;28;89377;-78
2023/09/22 03:28:56;;;;;;;;;;;;;;;;;;4957786;28;89268;-78
2023/09/22 03:31:21;;;;;;;;;;;;;;;;;;4960932;28;89206;-77
2023/09/22 03:33:47;;;;;;;;;;;;;;;;;;4961541;28;90850;-78
2023/09/22 03:36:12;;;;;;;;;;;;;;;;;;4963247;28;90226;-77
2023/09/22 03:38:41;;;;;;;;;;;;;;;;;;4958054;28;90443;-77
2023/09/22 03:41:06;;;;;;;;;;;;;;;;;;4958798;28;92435;-77
2023/09/22 03:43:32;;;;;;;;;;;;;;;;;;4967019;28;89570;-76
2023/09/22 03:45:58;;;;;;;;;;;;;;;;;;4964923;28;91362;-77
2023/09/22 03:48:23;;;;;;;;;;;;;;;;;;4965310;28;89222;-77
2023/09/22 03:50:48;;;;;;;;;;;;;;;;;;4962234;28;90089;-77
2023/09/22 03:53:14;;;;;;;;;;;;;;;;;;4959971;28;90055;-77
2023/09/22 03:55:39;;;;;;;;;;;;;;;;;;4963744;28;89508;-77
2023/09/22 03:58:05;;;;;;;;;;;;;;;;;;4962824;28;89685;-77
2023/09/22 04:00:30;;;;;;;;;;;;;;;;;;4961958;28;89577;-77
2023/09/22 04:02:56;;;;;;;;;;;;;;;;;;4962378;28;89376;-77
2023/09/22 04:05:21;;;;;;;;;;;;;;;;;;4965049;28;89638;-77
2023/09/22 04:07:46;;;;;;;;;;;;;;;;;;4963172;28;90636;-77
2023/09/22 04:10:11;;;;;;;;;;;;;;;;;;4962474;28;89649;-77
2023/09/22 04:12:37;;;;;;;;;;;;;;;;;;4977306;28;92248;-77
2023/09/22 04:15:06;;;;;;;;;;;;;;;;;;4963758;28;89565;-77
2023/09/22 04:17:32;;;;;;;;;;;;;;;;;;4965217;28;89260;-77
2023/09/22 04:19:58;;;;;;;;;;;;;;;;;;4961605;28;90035;-77
2023/09/22 04:22:23;;;;;;;;;;;;;;;;;;4967554;28;89348;-77
2023/09/22 04:24:50;;;;;;;;;;;;;;;;;;4961705;28;90405;-77
2023/09/22 04:27:16;;;;;;;;;;;;;;;;;;4969544;28;89557;-77
2023/09/22 04:29:41;;;;;;;;;;;;;;;;;;4966859;28;90561;-77
2023/09/22 04:32:06;;;;;;;;;;;;;;;;;;4962087;28;90059;-77
2023/09/22 04:34:35;;;;;;;;;;;;;;;;;;4964349;28;90003;-77
2023/09/22 04:37:03;;;;;;;;;;;;;;;;;;4966697;28;89605;-77
2023/09/22 04:39:31;;;;;;;;;;;;;;;;;;4965120;28;90721;-77
2023/09/22 04:41:57;;;;;;;;;;;;;;;;;;4962804;28;90362;-77
2023/09/22 04:44:22;;;;;;;;;;;;;;;;;;4964830;28;89829;-77
2023/09/22 04:46:47;;;;;;;;;;;;;;;;;;4968036;28;90040;-78
2023/09/22 04:49:12;;;;;;;;;;;;;;;;;;4962900;28;89233;-77
2023/09/22 04:51:38;;;;;;;;;;;;;;;;;;4960032;28;89599;-77
2023/09/22 04:54:03;;;;;;;;;;;;;;;;;;4959703;28;89880;-77
2023/09/22 04:56:29;;;;;;;;;;;;;;;;;;4964452;28;90031;-78
2023/09/22 04:58:56;;;;;;;;;;;;;;;;;;4958301;28;89972;-77
2023/09/22 05:01:24;;;;;;;;;;;;;;;;;;4962562;28;89320;-78
2023/09/22 05:03:49;;;;;;;;;;;;;;;;;;4963279;28;89593;-78
2023/09/22 05:06:14;;;;;;;;;;;;;;;;;;4963438;28;90410;-79
2023/09/22 05:08:42;;;;;;;;;;;;;;;;;;4961720;28;89388;-78
2023/09/22 05:11:08;;;;;;;;;;;;;;;;;;4966765;28;89785;-79
2023/09/22 05:13:34;;;;;;;;;;;;;;;;;;4963710;28;89886;-78
2023/09/22 05:16:08;;;;;;;;;;;;;;;;;;4981464;28;89801;-79
2023/09/22 05:18:34;;;;;;;;;;;;;;;;;;4961850;28;89544;-79
2023/09/22 05:21:00;;;;;;;;;;;;;;;;;;4960627;28;90228;-77
2023/09/22 05:23:25;;;;;;;;;;;;;;;;;;4961010;28;90171;-77
2023/09/22 05:25:51;;;;;;;;;;;;;;;;;;4961293;28;89557;-78
2023/09/22 05:28:16;;;;;;;;;;;;;;;;;;4964461;28;90800;-79
2023/09/22 05:30:41;;;;;;;;;;;;;;;;;;4959233;28;89227;-78
2023/09/22 05:33:08;;;;;;;;;;;;;;;;;;4965848;28;89773;-71
2023/09/22 05:35:36;;;;;;;;;;;;;;;;;;4964130;28;89205;-75
2023/09/22 05:38:05;;;;;;;;;;;;;;;;;;4965084;28;89674;-76
2023/09/22 05:40:34;;;;;;;;;;;;;;;;;;4962298;28;90932;-78
2023/09/22 05:42:59;;;;;;;;;;;;;;;;;;4959767;28;90710;-78
2023/09/22 05:45:25;;;;;;;;;;;;;;;;;;4964248;28;89865;-74
2023/09/22 05:47:50;;;;;;;;;;;;;;;;;;4961475;28;90164;-76
2023/09/22 05:50:16;;;;;;;;;;;;;;;;;;4962407;28;89597;-75
2023/09/22 05:52:42;;;;;;;;;;;;;;;;;;4959548;28;90133;-76
2023/09/22 05:55:07;;;;;;;;;;;;;;;;;;4967955;28;89874;-75
2023/09/22 05:57:34;;;;;;;;;;;;;;;;;;4960315;28;90872;-76
2023/09/22 05:59:59;;;;;;;;;;;;;;;;;;4965874;28;89659;-76
2023/09/22 06:02:25;;;;;;;;;;;;;;;;;;4954624;28;89655;-74
2023/09/22 06:04:52;;;;;;;;;;;;;;;;;;4960054;28;90178;-77
2023/09/22 06:07:17;;;;;;;;;;;;;;;;;;4960024;28;90161;-76
2023/09/22 06:09:43;;;;;;;;;;;;;;;;;;4962819;28;89832;-75
2023/09/22 06:12:10;;;;;;;;;;;;;;;;;;4961017;28;90727;-76
2023/09/22 06:14:35;;;;;;;;;;;;;;;;;;4958343;28;90012;-76
2023/09/22 06:17:00;;;;;;;;;;;;;;;;;;4958135;28;89740;-75
2023/09/22 06:19:26;;;;;;;;;;;;;;;;;;4960955;28;89121;-77
2023/09/22 06:21:51;;;;;;;;;;;;;;;;;;4957157;28;89075;-77
2023/09/22 06:24:17;;;;;;;;;;;;;;;;;;4964520;28;92387;-78
2023/09/22 06:26:42;;;;;;;;;;;;;;;;;;4961301;28;89460;-77
2023/09/22 06:29:07;;;;;;;;;;;;;;;;;;4964177;28;89066;-77
2023/09/22 06:31:33;;;;;;;;;;;;;;;;;;4958323;28;90041;-77
2023/09/22 06:33:59;;;;;;;;;;;;;;;;;;4959836;28;89937;-77
2023/09/22 06:36:24;;;;;;;;;;;;;;;;;;4961891;28;90821;-77
2023/09/22 06:38:50;;;;;;;;;;;;;;;;;;4963490;28;90346;-76
2023/09/22 06:41:16;;;;;;;;;;;;;;;;;;4965126;28;90684;-75
2023/09/22 06:43:41;;;;;;;;;;;;;;;;;;4964677;28;89788;-73
2023/09/22 06:46:06;;;;;;;;;;;;;;;;;;4960796;28;89885;-75
2023/09/22 06:48:32;;;;;;;;;;;;;;;;;;4965955;28;89789;-71
2023/09/22 06:50:58;;;;;;;;;;;;;;;;;;4960045;28;91135;-75
2023/09/22 06:53:24;;;;;;;;;;;;;;;;;;4962882;28;89095;-75
2023/09/22 06:55:50;;;;;;;;;;;;;;;;;;4959044;28;89964;-75
2023/09/22 06:58:15;;;;;;;;;;;;;;;;;;4979489;28;92397;-76
2023/09/22 07:00:40;;;;;;;;;;;;;;;;;;4959402;28;90380;-72
2023/09/22 07:03:06;;;;;;;;;;;;;;;;;;4964659;28;92405;-76
2023/09/22 07:05:32;;;;;;;;;;;;;;;;;;4959760;28;89795;-76
2023/09/22 07:07:57;;;;;;;;;;;;;;;;;;4960646;28;90064;-77
2023/09/22 07:10:24;;;;;;;;;;;;;;;;;;4958109;28;89602;-77
2023/09/22 07:12:49;;;;;;;;;;;;;;;;;;4958664;28;90196;-77
2023/09/22 07:15:16;;;;;;;;;;;;;;;;;;4957795;28;90126;-77
2023/09/22 07:17:42;;;;;;;;;;;;;;;;;;4963031;28;90759;-77
2023/09/22 07:20:12;;;;;;;;;;;;;;;;;;4962274;28;90378;-76
2023/09/22 07:22:37;;;;;;;;;;;;;;;;;;4962168;28;89731;-76
2023/09/22 07:25:03;;;;;;;;;;;;;;;;;;4955480;28;90584;-77
2023/09/22 07:27:29;;;;;;;;;;;;;;;;;;4955458;28;89106;-77
2023/09/22 07:29:54;;;;;;;;;;;;;;;;;;4960850;28;89618;-76
2023/09/22 07:32:20;;;;;;;;;;;;;;;;;;4961128;28;90098;-76
2023/09/22 07:34:45;;;;;;;;;;;;;;;;;;4961794;28;90499;-76
2023/09/22 07:37:11;;;;;;;;;;;;;;;;;;4966165;28;90995;-73
2023/09/22 07:39:37;;;;;;;;;;;;;;;;;;4961196;28;89569;-76
2023/09/22 07:42:03;;;;;;;;;;;;;;;;;;4960242;28;90723;-74
2023/09/22 07:44:28;;;;;;;;;;;;;;;;;;4964762;28;91944;-75
2023/09/22 07:46:56;;;;;;;;;;;;;;;;;;4952370;28;89615;-75
2023/09/22 07:49:21;;;;;;;;;;;;;;;;;;4958879;28;90689;-75
2023/09/22 07:51:47;;;;;;;;;;;;;;;;;;4974106;28;91955;-75
2023/09/22 07:54:12;;;;;;;;;;;;;;;;;;4961780;28;90052;-75
2023/09/22 07:56:37;;;;;;;;;;;;;;;;;;4963232;28;90888;-75
2023/09/22 07:59:03;;;;;;;;;;;;;;;;;;4962393;28;89364;-76
2023/09/22 08:01:28;;;;;;;;;;;;;;;;;;4956695;28;89615;-67
2023/09/22 08:03:54;;;;;;;;;;;;;;;;;;4959840;28;89362;-69
2023/09/22 08:06:19;;;;;;;;;;;;;;;;;;4962290;28;89719;-69
2023/09/22 08:08:45;;;;;;;;;;;;;;;;;;4963480;28;90736;-67
2023/09/22 08:11:10;;;;;;;;;;;;;;;;;;4978414;28;92378;-69
2023/09/22 08:13:35;;;;;;;;;;;;;;;;;;4960642;28;89669;-69
2023/09/22 08:16:04;;;;;;;;;;;;;;;;;;4959049;28;89605;-70
2023/09/22 08:18:34;;;;;;;;;;;;;;;;;;4959616;28;89576;-66
2023/09/22 08:20:59;;;;;;;;;;;;;;;;;;4961991;28;89653;-70
2023/09/22 08:23:24;;;;;;;;;;;;;;;;;;4964377;28;90441;-67
2023/09/22 08:25:49;;;;;;;;;;;;;;;;;;4956911;28;89147;-67
2023/09/22 08:28:15;;;;;;;;;;;;;;;;;;4964740;28;91272;-69
2023/09/22 08:30:40;;;;;;;;;;;;;;;;;;4968752;28;89376;-66
2023/09/22 08:33:07;;;;;;;;;;;;;;;;;;4964557;28;90434;-65
2023/09/22 08:35:32;;;;;;;;;;;;;;;;;;4964173;28;90720;-66
2023/09/22 08:38:00;;;;;;;;;;;;;;;;;;4959520;28;89499;-68
2023/09/22 08:40:25;;;;;;;;;;;;;;;;;;4961032;28;89896;-69
2023/09/22 08:42:52;;;;;;;;;;;;;;;;;;4966424;28;92684;-68
2023/09/22 08:45:18;;;;;;;;;;;;;;;;;;4965021;28;89842;-67
2023/09/22 08:47:45;;;;;;;;;;;;;;;;;;4958871;28;89938;-68
2023/09/22 08:50:14;;;;;;;;;;;;;;;;;;4963650;28;90138;-68
2023/09/22 08:52:40;;;;;;;;;;;;;;;;;;4965616;28;89750;-68
2023/09/22 08:55:09;;;;;;;;;;;;;;;;;;4962609;28;89544;-67
2023/09/22 08:57:34;;;;;;;;;;;;;;;;;;4963198;28;90813;-66
2023/09/22 09:00:00;;;;;;;;;;;;;;;;;;4962703;28;90512;-67
2023/09/22 09:02:25;;;;;;;;;;;;;;;;;;4961729;28;90074;-66
2023/09/22 09:04:50;;;;;;;;;;;;;;;;;;4966471;28;90814;-65
2023/09/22 09:07:16;;;;;;;;;;;;;;;;;;4967590;28;89485;-68
2023/09/22 09:09:47;;;;;;;;;;;;;;;;;;4963916;28;90203;-67
2023/09/22 09:12:13;;;;;;;;;;;;;;;;;;4960863;28;89671;-69
2023/09/22 09:14:43;;;;;;;;;;;;;;;;;;4959460;28;90601;-68
2023/09/22 09:17:18;;;;;;;;;;;;;;;;;;4963012;28;91402;-67
2023/09/22 09:19:46;;;;;;;;;;;;;;;;;;4963407;28;89189;-69
2023/09/22 09:22:13;;;;;;;;;;;;;;;;;;4960244;28;90679;-68
2023/09/22 09:24:38;;;;;;;;;;;;;;;;;;4958823;28;89279;-69
2023/09/22 09:27:17;;;;;;;;;;;;;;;;;;4957793;28;89893;-68
2023/09/22 09:29:44;;;;;;;;;;;;;;;;;;4965081;28;89809;-68
2023/09/22 09:32:09;;;;;;;;;;;;;;;;;;4962464;28;89749;-68
2023/09/22 09:34:39;;;;;;;;;;;;;;;;;;4962830;28;90583;-69
2023/09/22 09:37:16;;;;;;;;;;;;;;;;;;4962295;28;91997;-71
2023/09/22 09:39:52;;;;;;;;;;;;;;;;;;4962542;28;89572;-67
2023/09/22 09:42:19;;;;;;;;;;;;;;;;;;4958249;28;89478;-68
2023/09/22 09:44:47;;;;;;;;;;;;;;;;;;4965139;28;90193;-71
2023/09/22 09:47:16;;;;;;;;;;;;;;;;;;4963517;28;89398;-68
2023/09/22 09:49:43;;;;;;;;;;;;;;;;;;4963356;28;89670;-68
2023/09/22 09:52:09;;;;;;;;;;;;;;;;;;4964413;28;90156;-69
2023/09/22 09:54:37;;;;;;;;;;;;;;;;;;4959300;28;90090;-69
2023/09/22 09:57:04;;;;;;;;;;;;;;;;;;4958274;28;89633;-69
2023/09/22 09:59:30;;;;;;;;;;;;;;;;;;4960757;28;90436;-68
2023/09/22 10:01:55;;;;;;;;;;;;;;;;;;4961551;28;90901;-68
2023/09/22 10:04:21;;;;;;;;;;;;;;;;;;4962805;28;89161;-70
2023/09/22 10:06:48;;;;;;;;;;;;;;;;;;4975952;28;89918;-67
2023/09/22 10:09:13;;;;;;;;;;;;;;;;;;4961298;28;89735;-70
2023/09/22 10:11:39;;;;;;;;;;;;;;;;;;4964717;28;89676;-70
2023/09/22 10:14:04;;;;;;;;;;;;;;;;;;4958863;28;90390;-70
2023/09/22 10:16:31;;;;;;;;;;;;;;;;;;4960412;28;89305;-69
2023/09/22 10:18:59;;;;;;;;;;;;;;;;;;4954365;28;89646;-72
2023/09/22 10:21:30;;;;;;;;;;;;;;;;;;4961498;28;89838;-69
2023/09/22 10:24:14;;;;;;;;;;;;;;;;;;4964549;28;89763;-68
2023/09/22 10:27:07;;;;;;;;;;;;;;;;;;4964663;28;89532;-72
2023/09/22 10:29:35;;;;;;;;;;;;;;;;;;4956335;28;90765;-71
2023/09/22 10:32:19;;;;;;;;;;;;;;;;;;4958281;28;89896;-71
2023/09/22 10:34:54;;;;;;;;;;;;;;;;;;4963900;28;90269;-71
2023/09/22 10:37:21;;;;;;;;;;;;;;;;;;4958874;28;90608;-71
2023/09/22 10:39:52;;;;;;;;;;;;;;;;;;4961383;28;89133;-71
2023/09/22 10:42:18;;;;;;;;;;;;;;;;;;4961291;28;89556;-70
2023/09/22 10:45:03;;;;;;;;;;;;;;;;;;4963206;28;89161;-69
2023/09/22 10:47:37;;;;;;;;;;;;;;;;;;4960165;28;90028;-69
2023/09/22 10:50:12;;;;;;;;;;;;;;;;;;4961815;28;90614;-69
2023/09/22 10:52:38;;;;;;;;;;;;;;;;;;4963495;28;90216;-70
2023/09/22 10:55:05;;;;;;;;;;;;;;;;;;4957799;28;90250;-67
2023/09/22 10:57:31;;;;;;;;;;;;;;;;;;4962780;28;89666;-68
2023/09/22 10:59:56;;;;;;;;;;;;;;;;;;4960096;28;89991;-72
2023/09/22 11:02:25;;;;;;;;;;;;;;;;;;4960795;28;89556;-68
2023/09/22 11:04:50;;;;;;;;;;;;;;;;;;4957843;28;90456;-69
2023/09/22 11:07:31;;;;;;;;;;;;;;;;;;4963074;28;90434;-71
2023/09/22 11:09:56;;;;;;;;;;;;;;;;;;4955054;28;90743;-72
2023/09/22 11:12:22;;;;;;;;;;;;;;;;;;4954113;28;90404;-71
2023/09/22 11:14:48;;;;;;;;;;;;;;;;;;4956507;28;90796;-71
2023/09/22 11:17:13;;;;;;;;;;;;;;;;;;4960941;28;89890;-71
2023/09/22 11:19:58;;;;;;;;;;;;;;;;;;4964424;28;89637;-72
2023/09/22 11:22:23;;;;;;;;;;;;;;;;;;4963507;28;90597;-71
2023/09/22 11:24:48;;;;;;;;;;;;;;;;;;4958808;28;90084;-71
2023/09/22 11:27:14;;;;;;;;;;;;;;;;;;4959204;28;89418;-72
2023/09/22 11:29:40;;;;;;;;;;;;;;;;;;4958361;28;90041;-70
2023/09/22 11:32:06;;;;;;;;;;;;;;;;;;4959158;28;91037;-71
2023/09/22 11:34:31;;;;;;;;;;;;;;;;;;4958544;28;89126;-71
2023/09/22 11:36:57;;;;;;;;;;;;;;;;;;4957994;28;89450;-70
2023/09/22 11:39:26;;;;;;;;;;;;;;;;;;4959309;28;89974;-70
2023/09/22 11:41:52;;;;;;;;;;;;;;;;;;4966542;28;89169;-71
2023/09/22 11:44:17;;;;;;;;;;;;;;;;;;4960075;28;89258;-71
2023/09/22 11:46:46;;;;;;;;;;;;;;;;;;4956565;28;89883;-71
2023/09/22 11:49:12;;;;;;;;;;;;;;;;;;4958483;28;89579;-66
2023/09/22 11:51:38;;;;;;;;;;;;;;;;;;4956183;28;90636;-71
2023/09/22 11:54:03;;;;;;;;;;;;;;;;;;4960493;28;90690;-72
2023/09/22 11:56:28;;;;;;;;;;;;;;;;;;4956480;28;89527;-71
2023/09/22 11:59:03;;;;;;;;;;;;;;;;;;4956091;28;89478;-74
2023/09/22 12:01:28;;;;;;;;;;;;;;;;;;4958517;28;89569;-70
2023/09/22 12:03:53;;;;;;;;;;;;;;;;;;4964247;28;89522;-70
2023/09/22 12:06:19;;;;;;;;;;;;;;;;;;4960165;28;90620;-71
2023/09/22 12:08:44;;;;;;;;;;;;;;;;;;4962541;28;89942;-71
2023/09/22 12:11:10;;;;;;;;;;;;;;;;;;4964673;28;90838;-80
2023/09/22 12:13:35;;;;;;;;;;;;;;;;;;4965587;28;89169;-72
2023/09/22 12:16:00;;;;;;;;;;;;;;;;;;4963757;28;90168;-73
2023/09/22 12:18:25;;;;;;;;;;;;;;;;;;4957907;28;90565;-68
2023/09/22 12:20:51;;;;;;;;;;;;;;;;;;4965453;28;89691;-69
2023/09/22 12:23:16;;;;;;;;;;;;;;;;;;4967481;28;89734;-73
2023/09/22 12:25:41;;;;;;;;;;;;;;;;;;4965819;28;89877;-71
2023/09/22 12:28:06;;;;;;;;;;;;;;;;;;4964705;28;89635;-72
2023/09/22 12:30:31;;;;;;;;;;;;;;;;;;4963805;28;89207;-72
2023/09/22 12:32:57;;;;;;;;;;;;;;;;;;4960769;28;89589;-72
2023/09/22 12:35:23;;;;;;;;;;;;;;;;;;4961768;28;89407;-73
2023/09/22 12:37:51;;;;;;;;;;;;;;;;;;4965708;28;89744;-71
2023/09/22 12:40:17;;;;;;;;;;;;;;;;;;4962590;28;91121;-72
2023/09/22 12:42:42;;;;;;;;;;;;;;;;;;4981281;28;92367;-72
2023/09/22 12:45:08;;;;;;;;;;;;;;;;;;4962829;28;89631;-70
2023/09/22 12:47:33;;;;;;;;;;;;;;;;;;4964173;28;91145;-70
2023/09/22 12:50:04;;;;;;;;;;;;;;;;;;4965636;28;89905;-69
2023/09/22 12:52:30;;;;;;;;;;;;;;;;;;4959075;28;89815;-68
2023/09/22 12:54:55;;;;;;;;;;;;;;;;;;4962152;28;89812;-67
2023/09/22 12:57:21;;;;;;;;;;;;;;;;;;4962384;28;90580;-70
2023/09/22 12:59:47;;;;;;;;;;;;;;;;;;4964247;28;89635;-67
2023/09/22 13:02:12;;;;;;;;;;;;;;;;;;4966029;28;89496;-68
2023/09/22 13:04:38;;;;;;;;;;;;;;;;;;4958544;28;89320;-68
2023/09/22 13:07:04;;;;;;;;;;;;;;;;;;4963505;28;89835;-69
2023/09/22 13:09:30;;;;;;;;;;;;;;;;;;4963739;28;91128;-67
2023/09/22 13:11:55;;;;;;;;;;;;;;;;;;4960178;28;89503;-71
2023/09/22 13:14:20;;;;;;;;;;;;;;;;;;4964324;28;89666;-71
2023/09/22 13:16:46;;;;;;;;;;;;;;;;;;4962302;28;89906;-69
2023/09/22 13:19:11;;;;;;;;;;;;;;;;;;4967404;28;90626;-66
2023/09/22 13:21:37;;;;;;;;;;;;;;;;;;4963952;28;90576;-66
2023/09/22 13:24:03;;;;;;;;;;;;;;;;;;4963958;28;90258;-67
2023/09/22 13:26:28;;;;;;;;;;;;;;;;;;4962984;28;89488;-66
2023/09/22 13:28:57;;;;;;;;;;;;;;;;;;4966824;28;90602;-67
2023/09/22 13:31:23;;;;;;;;;;;;;;;;;;4964800;28;90582;-71
2023/09/22 13:33:49;;;;;;;;;;;;;;;;;;4964290;28;89791;-70
2023/09/22 13:36:15;;;;;;;;;;;;;;;;;;4964393;28;90397;-70
2023/09/22 13:38:40;;;;;;;;;;;;;;;;;;4960223;28;89272;-71
2023/09/22 13:41:12;;;;;;;;;;;;;;;;;;4962263;28;89518;-70
2023/09/22 13:43:37;;;;;;;;;;;;;;;;;;4959001;28;89700;-70
2023/09/22 13:46:08;;;;;;;;;;;;;;;;;;4963104;28;90434;-70
2023/09/22 13:48:34;;;;;;;;;;;;;;;;;;4960185;28;89596;-72
2023/09/22 13:50:59;;;;;;;;;;;;;;;;;;4971974;28;92301;-71
2023/09/22 13:53:24;;;;;;;;;;;;;;;;;;4961272;28;90016;-70
2023/09/22 13:55:49;;;;;;;;;;;;;;;;;;4960866;28;89938;-69
2023/09/22 13:58:14;;;;;;;;;;;;;;;;;;4955692;28;89964;-72
2023/09/22 14:00:40;;;;;;;;;;;;;;;;;;4953926;28;90154;-70
2023/09/22 14:03:05;;;;;;;;;;;;;;;;;;4955155;28;89797;-72
2023/09/22 14:05:31;;;;;;;;;;;;;;;;;;4961552;28;89451;-68
2023/09/22 14:07:57;;;;;;;;;;;;;;;;;;4965740;28;89753;-70
2023/09/22 14:10:24;;;;;;;;;;;;;;;;;;4951737;28;90146;-71
2023/09/22 14:12:50;;;;;;;;;;;;;;;;;;4960324;28;89962;-72
2023/09/22 14:15:17;;;;;;;;;;;;;;;;;;4964518;28;89334;-69
2023/09/22 14:17:42;;;;;;;;;;;;;;;;;;4957205;28;89563;-71
2023/09/22 14:20:08;;;;;;;;;;;;;;;;;;4959228;28;89649;-70
2023/09/22 14:22:33;;;;;;;;;;;;;;;;;;4957810;28;89949;-69
2023/09/22 14:24:58;;;;;;;;;;;;;;;;;;4955387;28;89615;-70
2023/09/22 14:27:23;;;;;;;;;;;;;;;;;;4960487;28;89525;-70
2023/09/22 14:29:49;;;;;;;;;;;;;;;;;;4960276;28;89805;-72
2023/09/22 14:32:14;;;;;;;;;;;;;;;;;;4968395;28;89654;-71
2023/09/22 14:34:39;;;;;;;;;;;;;;;;;;4958932;28;89734;-71
2023/09/22 14:37:04;;;;;;;;;;;;;;;;;;4962557;28;89939;-71
2023/09/22 14:39:30;;;;;;;;;;;;;;;;;;4959088;28;90231;-70
2023/09/22 14:41:55;;;;;;;;;;;;;;;;;;4961050;28;90205;-71
2023/09/22 14:44:20;;;;;;;;;;;;;;;;;;4964893;28;89477;-71
2023/09/22 14:46:45;;;;;;;;;;;;;;;;;;4966071;28;90899;-71
2023/09/22 14:49:10;;;;;;;;;;;;;;;;;;4962347;28;89664;-70
2023/09/22 14:51:36;;;;;;;;;;;;;;;;;;4958424;28;89247;-71
2023/09/22 14:54:01;;;;;;;;;;;;;;;;;;4966698;28;89462;-71
2023/09/22 14:56:26;;;;;;;;;;;;;;;;;;4962245;28;91713;-71
2023/09/22 14:58:52;;;;;;;;;;;;;;;;;;4958346;28;90444;-71
2023/09/22 15:01:17;;;;;;;;;;;;;;;;;;4978394;28;91627;-70
2023/09/22 15:03:44;;;;;;;;;;;;;;;;;;4964637;28;90662;-69
2023/09/22 15:06:10;;;;;;;;;;;;;;;;;;4963430;28;91312;-68
2023/09/22 15:08:35;;;;;;;;;;;;;;;;;;4959039;28;89260;-71
2023/09/22 15:11:00;;;;;;;;;;;;;;;;;;4962851;28;90283;-67
2023/09/22 15:13:26;;;;;;;;;;;;;;;;;;4958825;28;89518;-65
2023/09/22 15:15:51;;;;;;;;;;;;;;;;;;4965583;28;90347;-67
2023/09/22 15:18:16;;;;;;;;;;;;;;;;;;4962289;28;90591;-67
2023/09/22 15:20:42;;;;;;;;;;;;;;;;;;4963672;28;90309;-68
2023/09/22 15:23:07;;;;;;;;;;;;;;;;;;4961118;28;89452;-71
2023/09/22 15:25:34;;;;;;;;;;;;;;;;;;4961616;28;89717;-65
2023/09/22 15:27:59;;;;;;;;;;;;;;;;;;4963190;28;91086;-70
2023/09/22 15:30:24;;;;;;;;;;;;;;;;;;4959228;28;89084;-71
2023/09/22 15:32:50;;;;;;;;;;;;;;;;;;4956954;28;90852;-69
2023/09/22 15:35:15;;;;;;;;;;;;;;;;;;4964067;28;89870;-70
2023/09/22 15:37:41;;;;;;;;;;;;;;;;;;4963536;28;89755;-70
2023/09/22 15:40:07;;;;;;;;;;;;;;;;;;4962967;28;89453;-69
2023/09/22 15:42:32;;;;;;;;;;;;;;;;;;4963788;28;89170;-71
2023/09/22 15:44:59;;;;;;;;;;;;;;;;;;4965197;28;89673;-69
2023/09/22 15:47:25;;;;;;;;;;;;;;;;;;4960121;28;90023;-72
2023/09/22 15:49:50;;;;;;;;;;;;;;;;;;4966557;28;90107;-71
2023/09/22 15:52:15;;;;;;;;;;;;;;;;;;4963662;28;89718;-71
2023/09/22 15:54:40;;;;;;;;;;;;;;;;;;4964981;28;89858;-72
2023/09/22 15:57:06;;;;;;;;;;;;;;;;;;4963745;28;89769;-72
2023/09/22 15:59:31;;;;;;;;;;;;;;;;;;4967616;28;89621;-73
2023/09/22 16:01:56;;;;;;;;;;;;;;;;;;4961920;28;89201;-72
2023/09/22 16:04:22;;;;;;;;;;;;;;;;;;4966843;28;89737;-73
2023/09/22 16:06:47;;;;;;;;;;;;;;;;;;4962310;28;89493;-73
2023/09/22 16:09:12;;;;;;;;;;;;;;;;;;4963066;28;89101;-71
2023/09/22 16:11:37;;;;;;;;;;;;;;;;;;4955578;28;89814;-68
2023/09/22 16:14:03;;;;;;;;;;;;;;;;;;4957908;28;90140;-68
2023/09/22 16:16:29;;;;;;;;;;;;;;;;;;4963994;28;89431;-68
2023/09/22 16:18:55;;;;;;;;;;;;;;;;;;4961878;28;89894;-69
2023/09/22 16:21:20;;;;;;;;;;;;;;;;;;4966036;28;89581;-73
2023/09/22 16:23:46;;;;;;;;;;;;;;;;;;4960532;28;89613;-69
2023/09/22 16:26:11;;;;;;;;;;;;;;;;;;4965171;28;91955;-67
2023/09/22 16:28:37;;;;;;;;;;;;;;;;;;4978586;28;89242;-68
2023/09/22 16:31:03;;;;;;;;;;;;;;;;;;4959344;28;89705;-73
2023/09/22 16:33:29;;;;;;;;;;;;;;;;;;4965751;28;90365;-71
2023/09/22 16:35:54;;;;;;;;;;;;;;;;;;4962348;28;90349;-69
2023/09/22 16:38:20;;;;;;;;;;;;;;;;;;4959082;28;89653;-67
2023/09/22 16:40:45;;;;;;;;;;;;;;;;;;4960138;28;89742;-65